sensor_id;sensor_type;location;lat;lon;timestamp;P1;durP1;ratioP1;P2;durP2;ratioP2
74707;SDS011;63360;50.104;8.074;2023-04-01T00:00:54;5.38;;;0.40;;
74707;SDS011;63360;50.104;8.074;2023-04-01T00:03:22;3.57;;;0.30;;
74707;SDS011;63360;50.104;8.074;2023-04-01T00:05:49;5.78;;;1.02;;
74707;SDS011;63360;50.104;8.074;2023-04-01T00:08:15;3.53;;;0.40;;
74707;SDS011;63360;50.104;8.074;2023-04-01T00:10:42;2.78;;;0.40;;
74707;SDS011;63360;50.104;8.074;2023-04-01T00:13:09;2.45;;;0.32;;
74707;SDS011;63360;50.104;8.074;2023-04-01T00:15:35;3.93;;;0.47;;
74707;SDS011;63360;50.104;8.074;2023-04-01T00:18:03;3.70;;;0.55;;
74707;SDS011;63360;50.104;8.074;2023-04-01T00:20:29;2.88;;;0.50;;
74707;SDS011;63360;50.104;8.074;2023-04-01T00:22:56;3.55;;;0.40;;
74707;SDS011;63360;50.104;8.074;2023-04-01T00:25:23;2.30;;;0.30;;
74707;SDS011;63360;50.104;8.074;2023-04-01T00:27:49;2.30;;;0.40;;
74707;SDS011;63360;50.104;8.074;2023-04-01T00:30:16;3.20;;;0.30;;
74707;SDS011;63360;50.104;8.074;2023-04-01T00:32:43;1.10;;;0.28;;
74707;SDS011;63360;50.104;8.074;2023-04-01T00:35:09;3.60;;;0.40;;
74707;SDS011;63360;50.104;8.074;2023-04-01T00:37:37;2.75;;;0.50;;
74707;SDS011;63360;50.104;8.074;2023-04-01T00:40:06;1.40;;;0.30;;
74707;SDS011;63360;50.104;8.074;2023-04-01T00:42:33;5.03;;;0.50;;
74707;SDS011;63360;50.104;8.074;2023-04-01T00:45:21;3.05;;;0.47;;
74707;SDS011;63360;50.104;8.074;2023-04-01T00:47:52;1.73;;;0.52;;
74707;SDS011;63360;50.104;8.074;2023-04-01T00:50:19;5.55;;;0.57;;
74707;SDS011;63360;50.104;8.074;2023-04-01T00:52:48;2.73;;;0.40;;
74707;SDS011;63360;50.104;8.074;2023-04-01T00:55:14;4.05;;;0.50;;
74707;SDS011;63360;50.104;8.074;2023-04-01T00:57:44;1.63;;;0.20;;
74707;SDS011;63360;50.104;8.074;2023-04-01T01:00:12;2.05;;;0.30;;
74707;SDS011;63360;50.104;8.074;2023-04-01T01:02:41;3.92;;;0.30;;
74707;SDS011;63360;50.104;8.074;2023-04-01T01:05:11;2.73;;;0.50;;
74707;SDS011;63360;50.104;8.074;2023-04-01T01:07:45;1.98;;;0.32;;
74707;SDS011;63360;50.104;8.074;2023-04-01T01:10:28;3.13;;;0.35;;
74707;SDS011;63360;50.104;8.074;2023-04-01T01:20:55;2.97;;;0.40;;
74707;SDS011;63360;50.104;8.074;2023-04-01T01:34:36;1.83;;;0.30;;
74707;SDS011;63360;50.104;8.074;2023-04-01T01:37:13;1.60;;;0.30;;
74707;SDS011;63360;50.104;8.074;2023-04-01T01:39:43;2.63;;;0.30;;
74707;SDS011;63360;50.104;8.074;2023-04-01T01:42:13;3.08;;;0.25;;
74707;SDS011;63360;50.104;8.074;2023-04-01T01:44:43;3.00;;;0.20;;
74707;SDS011;63360;50.104;8.074;2023-04-01T01:47:12;2.22;;;0.30;;
74707;SDS011;63360;50.104;8.074;2023-04-01T01:49:40;2.17;;;0.25;;
74707;SDS011;63360;50.104;8.074;2023-04-01T01:52:08;2.67;;;0.38;;
74707;SDS011;63360;50.104;8.074;2023-04-01T01:54:35;3.75;;;0.30;;
74707;SDS011;63360;50.104;8.074;2023-04-01T01:57:04;6.37;;;0.47;;
74707;SDS011;63360;50.104;8.074;2023-04-01T01:59:33;3.63;;;0.30;;
74707;SDS011;63360;50.104;8.074;2023-04-01T02:02:04;2.00;;;0.28;;
74707;SDS011;63360;50.104;8.074;2023-04-01T02:04:34;5.70;;;0.40;;
74707;SDS011;63360;50.104;8.074;2023-04-01T02:07:03;3.67;;;0.30;;
74707;SDS011;63360;50.104;8.074;2023-04-01T02:09:33;3.90;;;0.30;;
74707;SDS011;63360;50.104;8.074;2023-04-01T02:12:01;2.88;;;0.20;;
74707;SDS011;63360;50.104;8.074;2023-04-01T02:14:46;1.55;;;0.30;;
74707;SDS011;63360;50.104;8.074;2023-04-01T02:17:20;1.55;;;0.20;;
74707;SDS011;63360;50.104;8.074;2023-04-01T02:19:58;3.20;;;0.38;;
74707;SDS011;63360;50.104;8.074;2023-04-01T02:22:34;3.53;;;0.37;;
74707;SDS011;63360;50.104;8.074;2023-04-01T02:25:04;1.40;;;0.40;;
74707;SDS011;63360;50.104;8.074;2023-04-01T02:27:33;2.38;;;0.40;;
74707;SDS011;63360;50.104;8.074;2023-04-01T02:30:00;1.98;;;0.20;;
74707;SDS011;63360;50.104;8.074;2023-04-01T02:32:27;2.10;;;0.28;;
74707;SDS011;63360;50.104;8.074;2023-04-01T02:34:55;2.53;;;0.33;;
74707;SDS011;63360;50.104;8.074;2023-04-01T02:37:22;3.42;;;0.40;;
74707;SDS011;63360;50.104;8.074;2023-04-01T02:39:49;2.10;;;0.30;;
74707;SDS011;63360;50.104;8.074;2023-04-01T02:42:15;1.67;;;0.45;;
74707;SDS011;63360;50.104;8.074;2023-04-01T02:44:42;3.72;;;0.50;;
74707;SDS011;63360;50.104;8.074;2023-04-01T02:47:08;2.97;;;0.30;;
74707;SDS011;63360;50.104;8.074;2023-04-01T02:49:34;2.78;;;0.30;;
74707;SDS011;63360;50.104;8.074;2023-04-01T02:52:01;3.72;;;0.30;;
74707;SDS011;63360;50.104;8.074;2023-04-01T02:54:27;1.05;;;0.20;;
74707;SDS011;63360;50.104;8.074;2023-04-01T02:56:54;1.30;;;0.20;;
74707;SDS011;63360;50.104;8.074;2023-04-01T02:59:20;2.57;;;0.20;;
74707;SDS011;63360;50.104;8.074;2023-04-01T03:01:46;2.38;;;0.20;;
74707;SDS011;63360;50.104;8.074;2023-04-01T03:04:13;1.60;;;0.30;;
74707;SDS011;63360;50.104;8.074;2023-04-01T03:06:39;2.97;;;0.35;;
74707;SDS011;63360;50.104;8.074;2023-04-01T03:09:05;1.30;;;0.22;;
74707;SDS011;63360;50.104;8.074;2023-04-01T03:11:32;1.20;;;0.20;;
74707;SDS011;63360;50.104;8.074;2023-04-01T03:13:58;2.03;;;0.20;;
74707;SDS011;63360;50.104;8.074;2023-04-01T03:16:25;1.52;;;0.40;;
74707;SDS011;63360;50.104;8.074;2023-04-01T03:18:51;2.22;;;0.30;;
74707;SDS011;63360;50.104;8.074;2023-04-01T03:21:20;3.42;;;0.80;;
74707;SDS011;63360;50.104;8.074;2023-04-01T03:23:48;1.07;;;0.30;;
74707;SDS011;63360;50.104;8.074;2023-04-01T03:26:14;1.65;;;0.30;;
74707;SDS011;63360;50.104;8.074;2023-04-01T03:28:41;1.95;;;0.50;;
74707;SDS011;63360;50.104;8.074;2023-04-01T03:31:08;4.13;;;0.60;;
74707;SDS011;63360;50.104;8.074;2023-04-01T03:33:35;3.35;;;0.30;;
74707;SDS011;63360;50.104;8.074;2023-04-01T03:36:02;2.77;;;0.30;;
74707;SDS011;63360;50.104;8.074;2023-04-01T03:38:32;3.13;;;0.55;;
74707;SDS011;63360;50.104;8.074;2023-04-01T03:41:00;2.15;;;0.20;;
74707;SDS011;63360;50.104;8.074;2023-04-01T03:43:27;2.15;;;0.20;;
74707;SDS011;63360;50.104;8.074;2023-04-01T03:45:53;2.70;;;0.30;;
74707;SDS011;63360;50.104;8.074;2023-04-01T03:48:20;1.60;;;0.20;;
74707;SDS011;63360;50.104;8.074;2023-04-01T03:50:47;2.90;;;0.30;;
74707;SDS011;63360;50.104;8.074;2023-04-01T03:53:14;1.55;;;0.20;;
74707;SDS011;63360;50.104;8.074;2023-04-01T03:55:41;1.88;;;0.30;;
74707;SDS011;63360;50.104;8.074;2023-04-01T03:58:09;1.80;;;0.20;;
74707;SDS011;63360;50.104;8.074;2023-04-01T04:00:36;4.17;;;0.53;;
74707;SDS011;63360;50.104;8.074;2023-04-01T04:03:02;1.98;;;0.30;;
74707;SDS011;63360;50.104;8.074;2023-04-01T04:05:29;2.47;;;0.30;;
74707;SDS011;63360;50.104;8.074;2023-04-01T04:07:56;3.47;;;0.40;;
74707;SDS011;63360;50.104;8.074;2023-04-01T04:10:22;3.33;;;0.73;;
74707;SDS011;63360;50.104;8.074;2023-04-01T04:12:49;3.87;;;0.50;;
74707;SDS011;63360;50.104;8.074;2023-04-01T04:15:15;1.35;;;0.10;;
74707;SDS011;63360;50.104;8.074;2023-04-01T04:17:43;2.63;;;0.20;;
74707;SDS011;63360;50.104;8.074;2023-04-01T04:20:10;3.55;;;0.20;;
74707;SDS011;63360;50.104;8.074;2023-04-01T04:22:37;1.17;;;0.20;;
74707;SDS011;63360;50.104;8.074;2023-04-01T04:25:04;1.73;;;0.20;;
74707;SDS011;63360;50.104;8.074;2023-04-01T04:27:30;1.15;;;0.20;;
74707;SDS011;63360;50.104;8.074;2023-04-01T04:29:57;2.40;;;0.30;;
74707;SDS011;63360;50.104;8.074;2023-04-01T04:32:23;2.97;;;0.30;;
74707;SDS011;63360;50.104;8.074;2023-04-01T04:34:49;2.80;;;0.30;;
74707;SDS011;63360;50.104;8.074;2023-04-01T04:37:16;3.40;;;0.27;;
74707;SDS011;63360;50.104;8.074;2023-04-01T04:39:42;2.15;;;0.20;;
74707;SDS011;63360;50.104;8.074;2023-04-01T04:42:09;1.55;;;0.20;;
74707;SDS011;63360;50.104;8.074;2023-04-01T04:44:35;2.08;;;0.30;;
74707;SDS011;63360;50.104;8.074;2023-04-01T04:47:01;5.68;;;0.40;;
74707;SDS011;63360;50.104;8.074;2023-04-01T04:49:28;3.57;;;0.30;;
74707;SDS011;63360;50.104;8.074;2023-04-01T04:51:55;3.45;;;0.20;;
74707;SDS011;63360;50.104;8.074;2023-04-01T04:54:21;3.20;;;0.30;;
74707;SDS011;63360;50.104;8.074;2023-04-01T04:56:47;2.25;;;0.13;;
74707;SDS011;63360;50.104;8.074;2023-04-01T04:59:14;2.60;;;0.47;;
74707;SDS011;63360;50.104;8.074;2023-04-01T05:01:40;3.30;;;0.30;;
74707;SDS011;63360;50.104;8.074;2023-04-01T05:04:07;2.67;;;0.40;;
74707;SDS011;63360;50.104;8.074;2023-04-01T05:06:33;3.10;;;0.40;;
74707;SDS011;63360;50.104;8.074;2023-04-01T05:09:00;2.70;;;0.20;;
74707;SDS011;63360;50.104;8.074;2023-04-01T05:11:26;2.88;;;0.30;;
74707;SDS011;63360;50.104;8.074;2023-04-01T05:13:53;2.37;;;0.20;;
74707;SDS011;63360;50.104;8.074;2023-04-01T05:16:19;2.83;;;0.30;;
74707;SDS011;63360;50.104;8.074;2023-04-01T05:18:46;2.05;;;0.30;;
74707;SDS011;63360;50.104;8.074;2023-04-01T05:21:14;2.72;;;0.30;;
74707;SDS011;63360;50.104;8.074;2023-04-01T05:23:41;2.17;;;0.20;;
74707;SDS011;63360;50.104;8.074;2023-04-01T05:26:09;1.87;;;0.20;;
74707;SDS011;63360;50.104;8.074;2023-04-01T05:28:38;1.58;;;0.10;;
74707;SDS011;63360;50.104;8.074;2023-04-01T05:31:05;3.05;;;0.40;;
74707;SDS011;63360;50.104;8.074;2023-04-01T05:33:32;3.13;;;0.25;;
74707;SDS011;63360;50.104;8.074;2023-04-01T05:36:05;2.00;;;0.20;;
74707;SDS011;63360;50.104;8.074;2023-04-01T05:38:33;3.47;;;0.50;;
74707;SDS011;63360;50.104;8.074;2023-04-01T05:41:00;4.95;;;1.00;;
74707;SDS011;63360;50.104;8.074;2023-04-01T05:43:28;4.97;;;1.20;;
74707;SDS011;63360;50.104;8.074;2023-04-01T05:45:56;3.60;;;1.00;;
74707;SDS011;63360;50.104;8.074;2023-04-01T05:48:23;1.40;;;0.50;;
74707;SDS011;63360;50.104;8.074;2023-04-01T05:50:49;1.67;;;0.30;;
74707;SDS011;63360;50.104;8.074;2023-04-01T05:53:16;1.33;;;0.30;;
74707;SDS011;63360;50.104;8.074;2023-04-01T05:55:42;2.38;;;0.30;;
74707;SDS011;63360;50.104;8.074;2023-04-01T05:58:09;1.52;;;0.40;;
74707;SDS011;63360;50.104;8.074;2023-04-01T06:00:35;1.00;;;0.20;;
74707;SDS011;63360;50.104;8.074;2023-04-01T06:03:02;1.73;;;0.20;;
74707;SDS011;63360;50.104;8.074;2023-04-01T06:05:29;2.45;;;0.20;;
74707;SDS011;63360;50.104;8.074;2023-04-01T06:08:05;0.90;;;0.10;;
74707;SDS011;63360;50.104;8.074;2023-04-01T06:13:47;0.88;;;0.17;;
74707;SDS011;63360;50.104;8.074;2023-04-01T06:22:04;0.70;;;0.10;;
74707;SDS011;63360;50.104;8.074;2023-04-01T06:46:19;0.40;;;0.10;;
74707;SDS011;63360;50.104;8.074;2023-04-01T06:49:27;1.42;;;0.20;;
74707;SDS011;63360;50.104;8.074;2023-04-01T06:54:44;0.70;;;0.10;;
74707;SDS011;63360;50.104;8.074;2023-04-01T07:00:00;0.68;;;0.10;;
74707;SDS011;63360;50.104;8.074;2023-04-01T07:02:39;0.60;;;0.10;;
74707;SDS011;63360;50.104;8.074;2023-04-01T07:05:11;0.57;;;0.10;;
74707;SDS011;63360;50.104;8.074;2023-04-01T07:07:50;0.95;;;0.10;;
74707;SDS011;63360;50.104;8.074;2023-04-01T07:10:23;0.17;;;0.07;;
74707;SDS011;63360;50.104;8.074;2023-04-01T07:12:58;0.60;;;0.10;;
74707;SDS011;63360;50.104;8.074;2023-04-01T07:18:11;0.85;;;0.10;;
74707;SDS011;63360;50.104;8.074;2023-04-01T07:20:42;0.45;;;0.10;;
74707;SDS011;63360;50.104;8.074;2023-04-01T07:23:16;0.33;;;0.10;;
74707;SDS011;63360;50.104;8.074;2023-04-01T07:25:52;0.35;;;0.10;;
74707;SDS011;63360;50.104;8.074;2023-04-01T07:28:21;0.52;;;0.10;;
74707;SDS011;63360;50.104;8.074;2023-04-01T07:33:42;0.20;;;0.20;;
74707;SDS011;63360;50.104;8.074;2023-04-01T07:36:59;0.90;;;0.17;;
74707;SDS011;63360;50.104;8.074;2023-04-01T07:52:45;0.30;;;0.10;;
74707;SDS011;63360;50.104;8.074;2023-04-01T08:01:30;0.95;;;0.10;;
74707;SDS011;63360;50.104;8.074;2023-04-01T08:07:23;0.30;;;0.10;;
74707;SDS011;63360;50.104;8.074;2023-04-01T08:09:57;0.20;;;0.10;;
74707;SDS011;63360;50.104;8.074;2023-04-01T08:12:59;0.30;;;0.10;;
74707;SDS011;63360;50.104;8.074;2023-04-01T08:23:21;0.70;;;0.30;;
74707;SDS011;63360;50.104;8.074;2023-04-01T08:25:58;0.70;;;0.30;;
74707;SDS011;63360;50.104;8.074;2023-04-01T08:28:34;1.27;;;0.10;;
74707;SDS011;63360;50.104;8.074;2023-04-01T08:31:09;0.40;;;0.17;;
74707;SDS011;63360;50.104;8.074;2023-04-01T08:33:40;0.82;;;0.10;;
74707;SDS011;63360;50.104;8.074;2023-04-01T08:44:33;1.60;;;0.20;;
74707;SDS011;63360;50.104;8.074;2023-04-01T09:00:56;0.68;;;0.10;;
74707;SDS011;63360;50.104;8.074;2023-04-01T09:14:16;0.82;;;0.10;;
74707;SDS011;63360;50.104;8.074;2023-04-01T09:16:58;1.60;;;0.20;;
74707;SDS011;63360;50.104;8.074;2023-04-01T09:28:07;0.43;;;0.20;;
74707;SDS011;63360;50.104;8.074;2023-04-01T09:39:22;0.40;;;0.13;;
74707;SDS011;63360;50.104;8.074;2023-04-01T09:44:32;0.22;;;0.10;;
74707;SDS011;63360;50.104;8.074;2023-04-01T09:52:44;0.43;;;0.10;;
74707;SDS011;63360;50.104;8.074;2023-04-01T09:58:27;0.70;;;0.20;;
74707;SDS011;63360;50.104;8.074;2023-04-01T10:01:16;0.70;;;0.20;;
74707;SDS011;63360;50.104;8.074;2023-04-01T10:07:08;0.90;;;0.20;;
74707;SDS011;63360;50.104;8.074;2023-04-01T10:15:40;0.40;;;0.20;;
74707;SDS011;63360;50.104;8.074;2023-04-01T10:31:50;0.85;;;0.20;;
74707;SDS011;63360;50.104;8.074;2023-04-01T10:34:54;0.50;;;0.20;;
74707;SDS011;63360;50.104;8.074;2023-04-01T11:03:38;1.17;;;0.30;;
74707;SDS011;63360;50.104;8.074;2023-04-01T11:09:19;1.88;;;0.30;;
74707;SDS011;63360;50.104;8.074;2023-04-01T11:23:22;1.85;;;0.30;;
74707;SDS011;63360;50.104;8.074;2023-04-01T11:26:02;0.70;;;0.22;;
74707;SDS011;63360;50.104;8.074;2023-04-01T11:28:44;0.50;;;0.30;;
74707;SDS011;63360;50.104;8.074;2023-04-01T11:31:50;1.17;;;0.30;;
74707;SDS011;63360;50.104;8.074;2023-04-01T11:35:12;1.50;;;0.30;;
74707;SDS011;63360;50.104;8.074;2023-04-01T11:46:16;0.63;;;0.20;;
74707;SDS011;63360;50.104;8.074;2023-04-01T11:48:50;0.95;;;0.40;;
74707;SDS011;63360;50.104;8.074;2023-04-01T11:54:49;1.35;;;0.30;;
74707;SDS011;63360;50.104;8.074;2023-04-01T12:00:57;0.47;;;0.20;;
74707;SDS011;63360;50.104;8.074;2023-04-01T12:09:36;0.60;;;0.20;;
74707;SDS011;63360;50.104;8.074;2023-04-01T12:12:25;1.58;;;0.30;;
74707;SDS011;63360;50.104;8.074;2023-04-01T12:15:16;1.73;;;0.43;;
74707;SDS011;63360;50.104;8.074;2023-04-01T12:18:15;1.05;;;0.40;;
74707;SDS011;63360;50.104;8.074;2023-04-01T12:21:19;0.73;;;0.30;;
74707;SDS011;63360;50.104;8.074;2023-04-01T12:41:07;0.70;;;0.40;;
74707;SDS011;63360;50.104;8.074;2023-04-01T12:43:59;0.73;;;0.30;;
74707;SDS011;63360;50.104;8.074;2023-04-01T12:52:50;0.30;;;0.20;;
74707;SDS011;63360;50.104;8.074;2023-04-01T12:58:01;0.70;;;0.33;;
74707;SDS011;63360;50.104;8.074;2023-04-01T13:03:43;0.43;;;0.30;;
74707;SDS011;63360;50.104;8.074;2023-04-01T13:22:43;1.27;;;0.30;;
74707;SDS011;63360;50.104;8.074;2023-04-01T13:30:46;1.10;;;0.50;;
74707;SDS011;63360;50.104;8.074;2023-04-01T13:42:26;1.42;;;0.47;;
74707;SDS011;63360;50.104;8.074;2023-04-01T13:45:02;1.25;;;0.40;;
74707;SDS011;63360;50.104;8.074;2023-04-01T13:47:52;0.90;;;0.30;;
74707;SDS011;63360;50.104;8.074;2023-04-01T14:10:31;1.40;;;0.55;;
74707;SDS011;63360;50.104;8.074;2023-04-01T14:13:56;1.10;;;0.43;;
74707;SDS011;63360;50.104;8.074;2023-04-01T14:18:39;0.90;;;0.40;;
74707;SDS011;63360;50.104;8.074;2023-04-01T14:26:47;0.60;;;0.30;;
74707;SDS011;63360;50.104;8.074;2023-04-01T14:35:17;0.47;;;0.20;;
74707;SDS011;63360;50.104;8.074;2023-04-01T14:40:49;1.42;;;0.40;;
74707;SDS011;63360;50.104;8.074;2023-04-01T14:46:14;1.88;;;0.20;;
74707;SDS011;63360;50.104;8.074;2023-04-01T14:48:50;0.60;;;0.30;;
74707;SDS011;63360;50.104;8.074;2023-04-01T14:51:28;1.08;;;0.40;;
74707;SDS011;63360;50.104;8.074;2023-04-01T14:56:41;1.02;;;0.50;;
74707;SDS011;63360;50.104;8.074;2023-04-01T14:59:16;1.02;;;0.30;;
74707;SDS011;63360;50.104;8.074;2023-04-01T15:04:49;1.77;;;0.60;;
74707;SDS011;63360;50.104;8.074;2023-04-01T15:07:27;0.80;;;0.40;;
74707;SDS011;63360;50.104;8.074;2023-04-01T15:10:14;1.10;;;0.40;;
74707;SDS011;63360;50.104;8.074;2023-04-01T15:12:56;3.38;;;0.50;;
74707;SDS011;63360;50.104;8.074;2023-04-01T15:24:26;0.60;;;0.30;;
74707;SDS011;63360;50.104;8.074;2023-04-01T15:32:46;1.40;;;0.30;;
74707;SDS011;63360;50.104;8.074;2023-04-01T15:35:39;0.90;;;0.30;;
74707;SDS011;63360;50.104;8.074;2023-04-01T15:44:06;1.47;;;0.40;;
74707;SDS011;63360;50.104;8.074;2023-04-01T15:47:15;1.00;;;0.40;;
74707;SDS011;63360;50.104;8.074;2023-04-01T15:52:48;1.10;;;0.43;;
74707;SDS011;63360;50.104;8.074;2023-04-01T15:58:32;1.63;;;0.30;;
74707;SDS011;63360;50.104;8.074;2023-04-01T16:04:24;1.90;;;0.40;;
74707;SDS011;63360;50.104;8.074;2023-04-01T16:07:03;2.03;;;0.63;;
74707;SDS011;63360;50.104;8.074;2023-04-01T16:09:59;5.13;;;1.80;;
74707;SDS011;63360;50.104;8.074;2023-04-01T16:18:06;1.73;;;0.73;;
74707;SDS011;63360;50.104;8.074;2023-04-01T16:21:01;1.75;;;0.60;;
74707;SDS011;63360;50.104;8.074;2023-04-01T16:23:37;1.90;;;0.80;;
74707;SDS011;63360;50.104;8.074;2023-04-01T16:28:55;2.40;;;0.90;;
74707;SDS011;63360;50.104;8.074;2023-04-01T16:31:34;1.80;;;0.90;;
74707;SDS011;63360;50.104;8.074;2023-04-01T16:39:58;1.20;;;0.40;;
74707;SDS011;63360;50.104;8.074;2023-04-01T16:48:11;0.80;;;0.30;;
74707;SDS011;63360;50.104;8.074;2023-04-01T16:50:42;1.15;;;0.30;;
74707;SDS011;63360;50.104;8.074;2023-04-01T16:53:19;0.73;;;0.30;;
74707;SDS011;63360;50.104;8.074;2023-04-01T16:58:55;1.80;;;0.50;;
74707;SDS011;63360;50.104;8.074;2023-04-01T17:01:23;1.60;;;0.45;;
74707;SDS011;63360;50.104;8.074;2023-04-01T17:03:57;1.88;;;0.40;;
74707;SDS011;63360;50.104;8.074;2023-04-01T17:12:35;2.30;;;0.30;;
74707;SDS011;63360;50.104;8.074;2023-04-01T17:18:05;1.25;;;0.50;;
74707;SDS011;63360;50.104;8.074;2023-04-01T17:20:54;1.37;;;0.40;;
74707;SDS011;63360;50.104;8.074;2023-04-01T17:23:29;1.35;;;0.50;;
74707;SDS011;63360;50.104;8.074;2023-04-01T17:28:41;1.00;;;0.35;;
74707;SDS011;63360;50.104;8.074;2023-04-01T17:31:17;1.50;;;0.40;;
74707;SDS011;63360;50.104;8.074;2023-04-01T17:36:42;5.35;;;1.70;;
74707;SDS011;63360;50.104;8.074;2023-04-01T17:42:08;5.15;;;1.00;;
74707;SDS011;63360;50.104;8.074;2023-04-01T17:44:51;4.40;;;1.30;;
74707;SDS011;63360;50.104;8.074;2023-04-01T17:47:29;5.23;;;1.53;;
74707;SDS011;63360;50.104;8.074;2023-04-01T17:50:19;5.43;;;1.55;;
74707;SDS011;63360;50.104;8.074;2023-04-01T17:56:02;2.78;;;1.30;;
74707;SDS011;63360;50.104;8.074;2023-04-01T18:01:17;2.23;;;0.70;;
74707;SDS011;63360;50.104;8.074;2023-04-01T18:12:32;1.27;;;0.40;;
74707;SDS011;63360;50.104;8.074;2023-04-01T18:26:29;1.92;;;0.60;;
74707;SDS011;63360;50.104;8.074;2023-04-01T18:28:59;1.30;;;0.60;;
74707;SDS011;63360;50.104;8.074;2023-04-01T18:31:42;1.65;;;0.75;;
74707;SDS011;63360;50.104;8.074;2023-04-01T18:34:16;2.03;;;1.00;;
74707;SDS011;63360;50.104;8.074;2023-04-01T18:36:59;2.35;;;0.80;;
74707;SDS011;63360;50.104;8.074;2023-04-01T18:39:45;2.17;;;0.73;;
74707;SDS011;63360;50.104;8.074;2023-04-01T18:42:23;1.67;;;0.70;;
74707;SDS011;63360;50.104;8.074;2023-04-01T18:44:52;2.60;;;0.60;;
74707;SDS011;63360;50.104;8.074;2023-04-01T18:50:40;1.88;;;0.50;;
74707;SDS011;63360;50.104;8.074;2023-04-01T18:53:22;1.70;;;0.60;;
74707;SDS011;63360;50.104;8.074;2023-04-01T18:55:56;1.23;;;0.40;;
74707;SDS011;63360;50.104;8.074;2023-04-01T18:58:26;1.23;;;0.50;;
74707;SDS011;63360;50.104;8.074;2023-04-01T19:07:21;1.77;;;0.57;;
74707;SDS011;63360;50.104;8.074;2023-04-01T19:09:19;2.13;;;0.60;;
74707;SDS011;63360;50.104;8.074;2023-04-01T19:14:56;3.30;;;0.60;;
74707;SDS011;63360;50.104;8.074;2023-04-01T19:20:39;2.97;;;1.23;;
74707;SDS011;63360;50.104;8.074;2023-04-01T19:25:48;4.72;;;2.20;;
74707;SDS011;63360;50.104;8.074;2023-04-01T19:31:30;3.63;;;1.42;;
74707;SDS011;63360;50.104;8.074;2023-04-01T19:34:14;3.30;;;1.50;;
74707;SDS011;63360;50.104;8.074;2023-04-01T19:36:45;4.73;;;2.27;;
74707;SDS011;63360;50.104;8.074;2023-04-01T19:39:23;6.15;;;3.42;;
74707;SDS011;63360;50.104;8.074;2023-04-01T19:44:55;6.93;;;4.00;;
74707;SDS011;63360;50.104;8.074;2023-04-01T19:53:15;2.85;;;1.40;;
74707;SDS011;63360;50.104;8.074;2023-04-01T19:55:58;3.80;;;1.80;;
74707;SDS011;63360;50.104;8.074;2023-04-01T20:01:27;4.60;;;1.77;;
74707;SDS011;63360;50.104;8.074;2023-04-01T20:04:11;3.63;;;1.60;;
74707;SDS011;63360;50.104;8.074;2023-04-01T20:06:44;3.13;;;1.30;;
74707;SDS011;63360;50.104;8.074;2023-04-01T20:12:11;5.75;;;2.78;;
74707;SDS011;63360;50.104;8.074;2023-04-01T20:14:44;4.10;;;1.90;;
74707;SDS011;63360;50.104;8.074;2023-04-01T20:17:23;4.50;;;1.87;;
74707;SDS011;63360;50.104;8.074;2023-04-01T20:27:58;3.38;;;1.40;;
74707;SDS011;63360;50.104;8.074;2023-04-01T20:36:06;3.20;;;1.20;;
74707;SDS011;63360;50.104;8.074;2023-04-01T20:39:04;3.75;;;1.05;;
74707;SDS011;63360;50.104;8.074;2023-04-01T20:47:25;5.25;;;1.88;;
74707;SDS011;63360;50.104;8.074;2023-04-01T21:04:30;2.30;;;0.77;;
74707;SDS011;63360;50.104;8.074;2023-04-01T21:10:25;4.05;;;1.13;;
74707;SDS011;63360;50.104;8.074;2023-04-01T21:22:04;3.70;;;1.70;;
74707;SDS011;63360;50.104;8.074;2023-04-01T21:24:44;3.80;;;1.48;;
74707;SDS011;63360;50.104;8.074;2023-04-01T21:27:39;2.73;;;1.00;;
74707;SDS011;63360;50.104;8.074;2023-04-01T21:30:24;2.47;;;0.80;;
74707;SDS011;63360;50.104;8.074;2023-04-01T21:33:30;2.30;;;0.70;;
74707;SDS011;63360;50.104;8.074;2023-04-01T21:36:10;2.70;;;0.85;;
74707;SDS011;63360;50.104;8.074;2023-04-01T21:42:08;1.50;;;0.60;;
74707;SDS011;63360;50.104;8.074;2023-04-01T21:50:22;1.80;;;0.60;;
74707;SDS011;63360;50.104;8.074;2023-04-01T21:59:34;2.95;;;1.00;;
74707;SDS011;63360;50.104;8.074;2023-04-01T22:05:10;1.83;;;0.80;;
74707;SDS011;63360;50.104;8.074;2023-04-01T22:13:20;1.92;;;0.90;;
74707;SDS011;63360;50.104;8.074;2023-04-01T22:16:16;2.67;;;1.08;;
74707;SDS011;63360;50.104;8.074;2023-04-01T22:18:46;1.75;;;0.77;;
74707;SDS011;63360;50.104;8.074;2023-04-01T22:30:32;3.08;;;0.95;;
74707;SDS011;63360;50.104;8.074;2023-04-01T22:33:06;2.25;;;1.05;;
74707;SDS011;63360;50.104;8.074;2023-04-01T22:44:33;1.80;;;0.80;;
74707;SDS011;63360;50.104;8.074;2023-04-01T22:52:48;2.23;;;0.90;;
74707;SDS011;63360;50.104;8.074;2023-04-01T22:55:25;2.50;;;1.00;;
74707;SDS011;63360;50.104;8.074;2023-04-01T22:58:06;2.55;;;0.95;;
74707;SDS011;63360;50.104;8.074;2023-04-01T23:00:43;2.03;;;0.90;;
74707;SDS011;63360;50.104;8.074;2023-04-01T23:03:32;2.17;;;1.00;;
74707;SDS011;63360;50.104;8.074;2023-04-01T23:06:03;1.70;;;0.80;;
74707;SDS011;63360;50.104;8.074;2023-04-01T23:11:14;2.17;;;1.00;;
74707;SDS011;63360;50.104;8.074;2023-04-01T23:13:45;2.95;;;1.20;;
74707;SDS011;63360;50.104;8.074;2023-04-01T23:16:20;2.65;;;1.10;;
74707;SDS011;63360;50.104;8.074;2023-04-01T23:21:59;2.65;;;1.10;;
74707;SDS011;63360;50.104;8.074;2023-04-01T23:24:41;4.43;;;1.30;;
74707;SDS011;63360;50.104;8.074;2023-04-01T23:27:21;2.63;;;1.00;;
74707;SDS011;63360;50.104;8.074;2023-04-01T23:29:56;3.65;;;0.90;;
74707;SDS011;63360;50.104;8.074;2023-04-01T23:32:23;2.53;;;1.10;;
74707;SDS011;63360;50.104;8.074;2023-04-01T23:34:55;2.63;;;1.30;;
74707;SDS011;63360;50.104;8.074;2023-04-01T23:37:24;2.88;;;1.10;;
74707;SDS011;63360;50.104;8.074;2023-04-01T23:39:53;3.58;;;1.17;;
74707;SDS011;63360;50.104;8.074;2023-04-01T23:42:23;3.30;;;0.90;;
74707;SDS011;63360;50.104;8.074;2023-04-01T23:44:55;3.93;;;1.03;;
74707;SDS011;63360;50.104;8.074;2023-04-01T23:47:24;2.78;;;0.88;;
74707;SDS011;63360;50.104;8.074;2023-04-01T23:49:56;2.08;;;0.90;;
74707;SDS011;63360;50.104;8.074;2023-04-01T23:52:30;2.25;;;1.10;;
74707;SDS011;63360;50.104;8.074;2023-04-01T23:58:00;1.90;;;0.80;;
